createdAt,value
2023-05-07T00:02:42.221Z,96550.78
2023-05-07T00:07:44.408Z,96551.03
2023-05-07T00:12:47.152Z,96559.00
2023-05-07T00:17:49.824Z,96524.69
2023-05-07T00:22:52.499Z,96548.09
2023-05-07T00:27:55.093Z,96522.59
2023-05-07T00:32:57.341Z,96550.38
2023-05-07T00:38:00.194Z,96568.63
2023-05-07T00:43:02.991Z,96563.81
2023-05-07T00:48:06.235Z,96557.59
2023-05-07T00:53:09.098Z,96556.88
2023-05-07T00:58:11.437Z,96530.31
2023-05-07T01:03:14.016Z,96570.75
2023-05-07T01:08:17.902Z,96568.47
2023-05-07T01:13:21.831Z,96572.19
2023-05-07T01:18:24.421Z,96562.28
2023-05-07T01:23:28.884Z,96564.16
2023-05-07T01:28:31.721Z,96562.88
2023-05-07T01:33:38.342Z,96536.03
2023-05-07T01:38:42.360Z,96548.66
2023-05-07T01:43:46.011Z,96553.50
2023-05-07T01:48:49.231Z,96550.22
2023-05-07T01:53:53.584Z,96554.72
2023-05-07T01:58:56.867Z,96552.69
2023-05-07T02:03:59.502Z,96530.72
2023-05-07T02:09:04.883Z,96531.41
2023-05-07T02:14:07.776Z,96527.47
2023-05-07T02:19:10.023Z,96519.03
2023-05-07T02:24:12.820Z,96523.59
2023-05-07T02:29:15.654Z,96528.13
2023-05-07T02:34:19.018Z,96528.84
2023-05-07T02:39:21.875Z,96531.34
2023-05-07T02:44:24.108Z,96533.78
2023-05-07T02:49:28.025Z,96511.84
2023-05-07T02:54:30.964Z,96507.91
2023-05-07T02:59:33.734Z,96520.25
2023-05-07T03:04:36.088Z,96510.50
2023-05-07T03:09:38.779Z,96511.59
2023-05-07T03:14:42.015Z,96515.41
2023-05-07T03:19:44.733Z,96532.09
2023-05-07T03:24:47.018Z,96531.31
2023-05-07T03:29:50.643Z,96539.59
2023-05-07T03:34:52.979Z,96531.03
2023-05-07T03:39:55.855Z,96546.81
2023-05-07T03:44:58.233Z,96537.38
2023-05-07T03:50:01.140Z,96528.66
2023-05-07T03:55:03.960Z,96537.03
2023-05-07T04:00:10.285Z,96546.69
2023-05-07T04:05:22.629Z,96541.53
2023-05-07T04:10:31.887Z,96529.41
2023-05-07T04:15:38.204Z,96539.50
2023-05-07T04:20:44.403Z,96561.25
2023-05-07T04:25:49.812Z,96533.59
2023-05-07T04:31:08.784Z,96559.94
2023-05-07T04:36:13.384Z,96545.09
2023-05-07T04:41:23.948Z,96568.75
2023-05-07T04:46:27.114Z,96567.66
2023-05-07T04:51:33.924Z,96561.38
2023-05-07T04:56:37.379Z,96554.19
2023-05-07T05:01:40.146Z,96561.00
2023-05-07T05:06:43.447Z,96555.13
2023-05-07T05:11:47.869Z,96536.41
2023-05-07T05:16:51.029Z,96543.34
2023-05-07T05:21:54.090Z,96531.47
2023-05-07T05:26:56.938Z,96530.00
2023-05-07T05:32:02.446Z,96535.06
2023-05-07T05:37:07.784Z,96540.44
2023-05-07T05:42:11.087Z,96532.28
2023-05-07T05:47:15.486Z,96527.06
2023-05-07T05:52:18.841Z,96528.06
2023-05-07T05:57:22.141Z,96523.84
2023-05-07T06:02:24.986Z,96522.63
2023-05-07T06:07:27.908Z,96511.53
2023-05-07T06:12:30.972Z,96511.66
2023-05-07T06:17:33.627Z,96486.34
2023-05-07T06:22:36.387Z,96479.53
2023-05-07T06:27:40.971Z,96480.59
2023-05-07T06:32:44.684Z,96481.97
2023-05-07T06:37:48.352Z,96466.06
2023-05-07T06:42:56.278Z,96463.31
2023-05-07T06:48:06.607Z,96463.59
2023-05-07T06:53:18.146Z,96464.97
2023-05-07T06:58:20.631Z,96470.94
2023-05-07T07:03:24.524Z,96487.19
2023-05-07T07:08:27.436Z,96473.63
2023-05-07T07:13:30.352Z,96476.56
2023-05-07T07:18:32.965Z,96466.47
2023-05-07T07:23:35.694Z,96483.63
2023-05-07T07:28:45.609Z,96490.84
2023-05-07T07:33:53.107Z,96483.03
2023-05-07T07:38:56.839Z,96484.84
2023-05-07T07:43:59.749Z,96488.72
2023-05-07T07:49:02.366Z,96491.66
2023-05-07T07:54:05.616Z,96501.81
2023-05-07T07:59:10.337Z,96493.91
2023-05-07T08:04:15.487Z,96494.59
2023-05-07T08:09:19.103Z,96479.47
2023-05-07T08:14:23.349Z,96478.13
2023-05-07T08:19:26.057Z,96483.94
2023-05-07T08:24:29.061Z,96478.91
2023-05-07T08:29:32.557Z,96478.28
2023-05-07T08:34:36.797Z,96470.47
2023-05-07T08:39:41.921Z,96465.84
2023-05-07T08:44:55.754Z,96471.59
2023-05-07T08:50:00.202Z,96453.22
2023-05-07T08:55:04.736Z,96451.75
2023-05-07T09:00:08.538Z,96454.22
2023-05-07T09:05:13.749Z,96452.84
2023-05-07T09:10:17.164Z,96465.72
2023-05-07T09:15:22.663Z,96449.28
2023-05-07T09:20:25.527Z,96447.25
2023-05-07T09:25:33.754Z,96460.25
2023-05-07T09:30:41.990Z,96442.91
2023-05-07T09:35:48.480Z,96442.88
2023-05-07T09:41:11.467Z,96426.44
2023-05-07T09:46:37.689Z,96427.88
2023-05-07T09:51:51.291Z,96409.78
2023-05-07T09:56:57.024Z,96409.56
2023-05-07T10:02:05.067Z,96411.91
2023-05-07T10:07:12.078Z,96399.53
2023-05-07T10:12:15.117Z,96407.69
2023-05-07T10:17:18.187Z,96408.00
2023-05-07T10:22:24.056Z,96388.66
2023-05-07T10:27:28.306Z,96392.09
2023-05-07T10:32:47.093Z,96380.25
2023-05-07T10:37:57.041Z,96389.22
2023-05-07T10:43:07.751Z,96381.22
2023-05-07T10:53:31.524Z,96371.22
2023-05-07T10:58:49.521Z,96357.13
2023-05-07T11:04:18.874Z,96365.84
2023-05-07T11:09:56.125Z,96367.28
2023-05-07T11:15:14.618Z,96370.34
2023-05-07T11:20:18.158Z,96337.50
2023-05-07T11:25:28.839Z,96340.03
2023-05-07T11:30:37.677Z,96344.34
2023-05-07T11:35:43.877Z,96342.00
2023-05-07T11:40:53.239Z,96319.31
2023-05-07T11:45:56.315Z,96315.22
2023-05-07T11:51:07.383Z,96309.91
2023-05-07T11:56:19.035Z,96314.59
2023-05-07T12:01:21.758Z,96313.94
2023-05-07T12:06:24.330Z,96327.31
2023-05-07T12:11:27.515Z,96317.06
2023-05-07T12:16:30.757Z,96318.69
2023-05-07T12:21:32.961Z,96262.97
2023-05-07T12:26:41.881Z,96262.28
2023-05-07T12:31:44.927Z,96278.03
2023-05-07T12:36:50.100Z,96280.19
2023-05-07T12:41:59.975Z,96284.69
2023-05-07T12:47:05.387Z,96299.88
2023-05-07T12:52:07.882Z,96265.00
2023-05-07T12:57:11.358Z,96275.22
2023-05-07T13:02:14.102Z,96291.66
2023-05-07T13:07:17.944Z,96287.16
2023-05-07T13:12:20.476Z,96280.59
2023-05-07T13:17:22.802Z,96271.34
2023-05-07T13:22:25.385Z,96274.41
2023-05-07T13:27:28.252Z,96257.06
2023-05-07T13:32:32.870Z,96288.16
2023-05-07T13:37:35.644Z,96277.78
2023-05-07T13:42:38.296Z,96286.47
2023-05-07T13:47:43.956Z,96279.13
2023-05-07T13:52:52.025Z,96278.78
2023-05-07T13:58:06.921Z,96267.44
2023-05-07T14:03:10.236Z,96271.09
2023-05-07T14:08:15.112Z,96272.47
2023-05-07T14:13:17.761Z,96266.75
2023-05-07T14:18:20.324Z,96268.09
2023-05-07T14:23:27.625Z,96277.47
2023-05-07T14:28:30.357Z,96261.44
2023-05-07T14:33:33.162Z,96272.13
2023-05-07T14:38:35.700Z,96285.31
2023-05-07T14:43:38.249Z,96289.47
2023-05-07T14:48:40.804Z,96265.06
2023-05-07T14:53:43.794Z,96286.94
2023-05-07T14:58:48.613Z,96276.41
2023-05-07T15:03:51.589Z,96283.81
2023-05-07T15:08:54.283Z,96290.50
2023-05-07T15:13:56.809Z,96295.66
2023-05-07T15:18:59.518Z,96281.94
2023-05-07T15:24:02.652Z,96283.44
2023-05-07T15:29:09.308Z,96271.72
2023-05-07T15:34:12.090Z,96281.41
2023-05-07T15:39:14.832Z,96276.66
2023-05-07T15:44:17.234Z,96278.03
2023-05-07T15:49:19.451Z,96270.66
2023-05-07T15:54:22.450Z,96278.16
2023-05-07T15:59:25.242Z,96270.69
2023-05-07T16:04:28.438Z,96283.63
2023-05-07T16:09:30.917Z,96281.22
2023-05-07T16:14:33.437Z,96272.97
2023-05-07T16:19:36.276Z,96269.84
2023-05-07T16:24:38.507Z,96266.22
2023-05-07T16:29:41.591Z,96260.59
2023-05-07T16:34:43.719Z,96267.69
2023-05-07T16:39:46.920Z,96270.19
2023-05-07T16:44:49.412Z,96265.19
2023-05-07T16:49:51.991Z,96253.25
2023-05-07T16:54:58.432Z,96274.31
2023-05-07T17:00:00.921Z,96282.47
2023-05-07T17:05:06.536Z,96269.69
2023-05-07T17:10:09.773Z,96281.47
2023-05-07T17:15:13.224Z,96289.97
2023-05-07T17:20:16.605Z,96287.75
2023-05-07T17:25:19.231Z,96304.31
2023-05-07T17:30:21.868Z,96294.78
2023-05-07T17:35:24.616Z,96315.47
2023-05-07T17:40:29.777Z,96313.13
2023-05-07T17:45:33.290Z,96326.63
2023-05-07T17:50:36.032Z,96315.38
2023-05-07T17:55:45.288Z,96320.91
2023-05-07T18:00:47.898Z,96335.31
2023-05-07T18:05:50.708Z,96330.25
2023-05-07T18:10:53.653Z,96338.72
2023-05-07T18:15:56.421Z,96351.06
2023-05-07T18:20:59.505Z,96341.19
2023-05-07T18:26:02.178Z,96348.19
2023-05-07T18:31:05.212Z,96359.09
2023-05-07T18:36:07.451Z,96361.69
2023-05-07T18:41:10.039Z,96365.81
2023-05-07T18:46:12.635Z,96371.69
2023-05-07T18:51:15.376Z,96366.88
2023-05-07T18:56:17.951Z,96357.41
2023-05-07T19:01:20.185Z,96384.19
2023-05-07T19:06:22.971Z,96377.63
2023-05-07T19:11:25.585Z,96378.78
2023-05-07T19:16:28.073Z,96395.28
2023-05-07T19:21:30.797Z,96382.06
2023-05-07T19:26:32.922Z,96401.94
2023-05-07T19:31:35.863Z,96391.13
2023-05-07T19:36:38.427Z,96394.38
2023-05-07T19:41:42.180Z,96402.09
2023-05-07T19:46:46.430Z,96393.00
2023-05-07T19:51:48.538Z,96404.25
2023-05-07T19:56:51.079Z,96405.78
2023-05-07T20:01:53.199Z,96403.59
2023-05-07T20:06:56.986Z,96403.28
2023-05-07T20:11:59.055Z,96409.75
2023-05-07T20:17:01.570Z,96420.25
2023-05-07T20:22:04.942Z,96408.59
2023-05-07T20:27:07.752Z,96414.69
2023-05-07T20:32:10.681Z,96420.13
2023-05-07T20:37:16.377Z,96425.28
2023-05-07T20:42:18.941Z,96439.66
2023-05-07T20:47:21.485Z,96446.00
2023-05-07T20:52:23.749Z,96430.34
2023-05-07T20:57:26.428Z,96436.19
2023-05-07T21:02:28.977Z,96421.31
2023-05-07T21:07:31.471Z,96400.97
2023-05-07T21:12:34.096Z,96442.63
2023-05-07T21:17:36.292Z,96443.72
2023-05-07T21:22:38.865Z,96443.63
2023-05-07T21:27:41.705Z,96429.59
2023-05-07T21:32:44.388Z,96423.34
2023-05-07T21:37:46.505Z,96434.53
2023-05-07T21:42:51.771Z,96405.38
2023-05-07T21:47:54.450Z,96450.72
2023-05-07T21:52:57.197Z,96442.97
2023-05-07T21:58:05.938Z,96461.19
2023-05-07T22:03:13.271Z,96442.91
2023-05-07T22:08:16.271Z,96404.69
2023-05-07T22:13:19.057Z,96442.19
2023-05-07T22:18:21.826Z,96435.75
2023-05-07T22:23:24.576Z,96460.97
2023-05-07T22:28:26.924Z,96455.44
2023-05-07T22:33:30.142Z,96447.25
2023-05-07T22:38:32.871Z,96433.09
2023-05-07T22:43:35.830Z,96431.38
2023-05-07T22:48:38.380Z,96439.59
2023-05-07T22:53:41.363Z,96442.56
2023-05-07T22:58:43.987Z,96432.13
2023-05-07T23:03:46.698Z,96423.09
2023-05-07T23:08:49.365Z,96421.75
2023-05-07T23:13:52.054Z,96431.13
2023-05-07T23:18:55.367Z,96429.81
2023-05-07T23:23:57.908Z,96417.81
2023-05-07T23:29:00.571Z,96423.75
2023-05-07T23:34:03.279Z,96402.66
2023-05-07T23:39:05.954Z,96411.75
2023-05-07T23:44:08.568Z,96396.59
2023-05-07T23:49:11.286Z,96399.03
2023-05-07T23:54:13.796Z,96398.63
2023-05-07T23:59:16.571Z,96392.78
